This is the latest recevied weather packets stored in our database for station/object KF0PEC-15. If no packets are shown the sender has not sent any weather packets the latest 10 day(s).
| Time | Temp. | Humidity | Pressure | Rain* | Wind** | Luminosity | Snow |
|---|---|---|---|---|---|---|---|
| 1777415985 | 12.78° C | 50% | 1014.1 hPa | 0 mm | - | 119 W/m² | - |
| 1777415500 | 12.78° C | 50% | 1014.1 hPa | 0 mm | - | 109 W/m² | - |
| 1777414930 | 12.78° C | 49% | 1013.9 hPa | 0 mm | - | 171 W/m² | - |
| 1777414395 | 12.78° C | 49% | 1013.7 hPa | 0 mm | - | 169 W/m² | - |
| 1777413845 | 12.78° C | 49% | 1014.1 hPa | 0 mm | - | 179 W/m² | - |
| 1777413355 | 12.78° C | 49% | 1013.9 hPa | 0 mm | - | 170 W/m² | - |
| 1777412800 | 12.78° C | 48% | 1014.1 hPa | 0 mm | - | 176 W/m² | - |
| 1777412230 | 13.33° C | 47% | 1013.4 hPa | 0 mm | - | 155 W/m² | - |
| 1777411746 | 14.44° C | 44% | 1012.5 hPa | 0 mm | - | 232 W/m² | - |
| 1777411200 | 14.44° C | 41% | 1012.3 hPa | 0 mm | - | 252 W/m² | - |
| 1777410715 | 14.44° C | 40% | 1012.2 hPa | 0 mm | - | 233 W/m² | - |
| 1777410225 | 14.44° C | 40% | 1012.4 hPa | 0 mm | - | 372 W/m² | - |
| 1777409715 | 14.44° C | 41% | 1012.2 hPa | 0 mm | - | 255 W/m² | - |
| 1777409225 | 14.44° C | 41% | 1012.3 hPa | 0 mm | - | 331 W/m² | - |
| 1777408715 | 15° C | 40% | 1011.7 hPa | 0 mm | - | 352 W/m² | - |
| 1777408150 | 15° C | 41% | 1011.8 hPa | 0 mm | - | 388 W/m² | - |
| 1777407575 | 14.44° C | 42% | 1012.1 hPa | 0 mm | - | 675 W/m² | - |
| 1777407090 | 14.44° C | 43% | 1012.2 hPa | 0 mm | - | 813 W/m² | - |
| 1777406555 | 13.89° C | 43% | 1012.7 hPa | 0 mm | - | 593 W/m² | - |
| 1777406050 | 15° C | 42% | 1011.9 hPa | 0 mm | - | 272 W/m² | - |
| 1777405485 | 13.33° C | 45% | 1013 hPa | 0 mm | - | 636 W/m² | - |
| 1777404915 | 13.89° C | 45% | 1012.7 hPa | 0 mm | - | 509 W/m² | - |
| 1777404360 | 13.89° C | 44% | 1013 hPa | 0 mm | - | 380 W/m² | - |
| 1777403780 | 12.78° C | 46% | 1013.6 hPa | 0 mm | - | 318 W/m² | - |
| 1777403260 | 13.33° C | 47% | 1013.4 hPa | 0 mm | - | 612 W/m² | - |
* Rain latest hour (hover to see other rain measurements)
** Current wind speed in m/s (hover to see current wind gust speed)